Time;durP1;ratioP1;P1;durP2;ratioP2;P2;SDS_P1;SDS_P2;PMS_P1;PMS_P2;Temp;Humidity;BMP_temperature;BMP_pressure;BME280_temperature;BME280_humidity;BME280_pressure;Samples;Min_cycle;Max_cycle;Signal;HPM_P1;HPM_P2
2022/04/05 00:03:06;;;;;;;10.43;6.95;;;;;;;5.79;48.56;99145.72;7738097;32;38486;-73
2022/04/05 00:07:24;;;;;;;11.93;6.95;;;;;;;5.91;48.33;99149.06;7738819;32;37515;-72
2022/04/05 00:11:40;;;;;;;11.27;6.95;;;;;;;6.10;47.88;99143.31;7738799;32;39496;-72
2022/04/05 00:15:56;;;;;;;10.63;6.22;;;;;;;5.94;48.38;99132.34;7738537;32;40792;-72
2022/04/05 00:20:13;;;;;;;12.13;7.25;;;;;;;6.23;47.46;99123.94;7738615;32;37877;-72
2022/04/05 00:24:29;;;;;;;10.60;6.70;;;;;;;6.50;46.75;99113.03;7738238;32;37074;-72
2022/04/05 00:28:46;;;;;;;11.75;7.10;;;;;;;6.70;46.30;99125.88;7738385;32;39355;-72
2022/04/05 00:33:02;;;;;;;11.45;7.10;;;;;;;6.64;46.77;99121.50;7738460;32;39965;-71
2022/04/05 00:37:18;;;;;;;8.88;6.10;;;;;;;6.16;47.95;99117.94;7738438;32;38619;-72
2022/04/05 00:41:34;;;;;;;9.77;6.72;;;;;;;6.63;46.73;99119.06;7738490;32;37899;-73
2022/04/05 00:45:50;;;;;;;11.73;6.68;;;;;;;6.23;47.73;99129.38;7738224;32;39514;-72
2022/04/05 00:50:07;;;;;;;14.30;6.90;;;;;;;6.48;47.76;99131.41;7738214;32;40730;-72
2022/04/05 00:54:25;;;;;;;15.52;7.45;;;;;;;6.25;48.38;99116.37;7738281;32;37840;-71
2022/04/05 00:58:42;;;;;;;11.68;7.37;;;;;;;6.99;47.17;99119.25;7737114;32;38404;-72
2022/04/05 01:02:59;;;;;;;10.25;6.85;;;;;;;6.86;47.46;99112.41;7738382;32;39555;-73
2022/04/05 01:07:19;;;;;;;12.40;6.82;;;;;;;6.80;46.49;99108.06;7737059;32;39999;-71
2022/04/05 01:11:36;;;;;;;9.55;6.40;;;;;;;6.48;47.56;99108.94;7738047;32;38494;-72
2022/04/05 01:15:52;;;;;;;10.45;5.80;;;;;;;6.59;47.14;99105.22;7737734;32;37246;-73
2022/04/05 01:20:09;;;;;;;11.00;6.90;;;;;;;6.53;47.53;99114.41;7737986;32;40100;-72
2022/04/05 01:24:25;;;;;;;12.68;6.57;;;;;;;7.02;47.30;99102.44;7737727;32;39979;-72
2022/04/05 01:28:41;;;;;;;12.00;6.57;;;;;;;7.41;46.19;99104.75;7737612;32;38809;-73
2022/04/05 01:32:59;;;;;;;10.50;6.60;;;;;;;6.68;48.49;99102.84;7737691;32;38010;-72
2022/04/05 01:37:15;;;;;;;12.50;7.30;;;;;;;7.05;47.78;99091.88;7736725;32;38637;-71
2022/04/05 01:41:31;;;;;;;10.63;6.87;;;;;;;7.21;47.60;99102.78;7737713;32;40756;-70
2022/04/05 01:45:48;;;;;;;10.85;6.65;;;;;;;7.15;46.97;99097.34;7737384;32;37895;-71
2022/04/05 01:50:05;;;;;;;10.93;6.80;;;;;;;6.61;47.63;99097.66;7737465;32;37259;-72
2022/04/05 01:54:21;;;;;;;9.57;6.18;;;;;;;6.89;47.64;99087.50;7737234;32;39350;-71
2022/04/05 01:58:37;;;;;;;11.18;6.85;;;;;;;7.07;47.33;99087.03;7737348;32;39748;-72
2022/04/05 02:02:53;;;;;;;9.90;6.53;;;;;;;7.22;46.73;99097.09;7737158;32;37580;-72
2022/04/05 02:07:14;;;;;;;11.15;6.53;;;;;;;7.01;47.46;99077.25;7737236;32;37638;-72
2022/04/05 02:11:31;;;;;;;11.32;6.50;;;;;;;7.32;47.53;99075.44;7735843;32;40089;-72
2022/04/05 02:15:47;;;;;;;11.90;7.57;;;;;;;7.72;46.84;99067.62;7736672;32;41430;-71
2022/04/05 02:20:04;;;;;;;12.40;6.87;;;;;;;6.60;50.09;99081.66;7736883;32;37515;-72
2022/04/05 02:24:20;;;;;;;14.43;7.28;;;;;;;6.92;48.73;99078.84;7736177;32;37202;-72
2022/04/05 02:28:37;;;;;;;12.95;7.22;;;;;;;6.88;48.54;99059.59;7738889;32;39298;-72
2022/04/05 02:32:53;;;;;;;13.07;7.60;;;;;;;6.92;49.34;99065.28;7738671;32;40773;-71
2022/04/05 02:37:09;;;;;;;16.92;8.43;;;;;;;6.55;48.98;99069.75;7739880;32;37866;-71
2022/04/05 02:41:25;;;;;;;10.82;6.95;;;;;;;6.82;49.95;99067.97;7738700;32;36928;-72
2022/04/05 02:45:41;;;;;;;10.45;6.18;;;;;;;6.75;49.76;99070.91;7739664;32;39161;-72
2022/04/05 02:49:57;;;;;;;13.45;7.05;;;;;;;6.45;49.37;99060.72;7739611;32;40735;-71
2022/04/05 02:54:14;;;;;;;9.95;6.22;;;;;;;6.73;48.46;99076.59;7739069;32;37792;-71
2022/04/05 02:58:30;;;;;;;8.63;5.25;;;;;;;6.68;48.86;99059.50;7739713;32;37394;-73
2022/04/05 03:02:46;;;;;;;12.57;7.18;;;;;;;7.10;47.35;99069.41;7739711;32;39401;-73
2022/04/05 03:07:03;;;;;;;9.13;6.22;;;;;;;6.18;49.87;99062.47;7739618;32;40730;-73
2022/04/05 03:11:19;;;;;;;11.12;7.10;;;;;;;6.71;48.89;99051.66;7739398;32;37910;-72
2022/04/05 03:15:35;;;;;;;12.00;6.90;;;;;;;7.10;47.65;99045.81;7739094;32;37052;-72
2022/04/05 03:19:52;;;;;;;12.02;6.93;;;;;;;6.95;48.20;99043.06;7739454;32;39471;-72
2022/04/05 03:24:08;;;;;;;12.30;7.03;;;;;;;6.96;48.95;99045.50;7738973;32;39926;-72
2022/04/05 03:28:25;;;;;;;13.73;7.00;;;;;;;6.67;50.24;99053.25;7738967;32;37900;-71
2022/04/05 03:32:41;;;;;;;10.77;6.78;;;;;;;6.94;48.89;99047.69;7738906;32;38341;-72
2022/04/05 03:36:57;;;;;;;11.25;7.00;;;;;;;6.65;51.06;99041.06;7738862;32;40062;-72
2022/04/05 03:41:13;;;;;;;12.40;7.70;;;;;;;6.58;51.35;99044.00;7738338;32;40536;-71
2022/04/05 03:45:30;;;;;;;11.43;6.97;;;;;;;6.64;50.57;99040.25;7737647;32;37778;-72
2022/04/05 03:49:46;;;;;;;13.80;7.93;;;;;;;7.02;50.58;99042.81;7739054;32;37887;-71
2022/04/05 03:54:03;;;;;;;11.25;7.07;;;;;;;6.02;52.79;99033.69;7737600;32;39401;-72
2022/04/05 03:58:19;;;;;;;12.35;7.28;;;;;;;6.46;52.63;99032.59;7737747;32;40471;-72
2022/04/05 04:02:36;;;;;;;12.80;6.78;;;;;;;6.61;52.08;99034.56;7738730;32;38594;-72
2022/04/05 04:06:52;;;;;;;11.68;6.82;;;;;;;6.37;52.93;99027.66;7738830;32;37151;-72
2022/04/05 04:11:08;;;;;;;11.25;6.72;;;;;;;6.48;51.98;99025.00;7738781;32;39289;-72
2022/04/05 04:15:24;;;;;;;11.40;6.28;;;;;;;6.73;51.72;99019.69;7738143;32;40708;-72
2022/04/05 04:19:41;;;;;;;12.40;7.47;;;;;;;6.51;52.50;99022.59;7738578;32;37857;-72
2022/04/05 04:23:57;;;;;;;11.00;6.70;;;;;;;6.22;53.83;99026.75;7738774;32;35595;-72
2022/04/05 04:28:13;;;;;;;12.05;7.50;;;;;;;6.24;54.13;99028.13;7738365;32;39192;-72
2022/04/05 04:32:29;;;;;;;14.25;6.25;;;;;;;6.53;53.29;99025.03;7738040;32;39709;-72
2022/04/05 04:36:46;;;;;;;10.45;6.43;;;;;;;6.68;53.14;99021.59;7738396;32;37841;-72
2022/04/05 04:41:02;;;;;;;12.80;7.45;;;;;;;6.19;54.61;99028.09;7738475;32;37214;-72
2022/04/05 04:45:18;;;;;;;12.05;6.80;;;;;;;6.60;53.62;99033.72;7738291;32;39567;-72
2022/04/05 04:49:35;;;;;;;12.23;7.32;;;;;;;6.22;54.45;99029.47;7737998;32;39877;-72
2022/04/05 04:53:51;;;;;;;12.70;6.90;;;;;;;6.44;53.59;99034.75;7738160;32;38776;-72
2022/04/05 04:58:07;;;;;;;11.65;6.62;;;;;;;6.58;53.39;99041.31;7738256;32;37781;-72
2022/04/05 05:02:23;;;;;;;12.02;7.15;;;;;;;6.36;54.48;99031.47;7737926;32;39034;-72
2022/04/05 05:06:39;;;;;;;11.80;7.25;;;;;;;6.23;54.22;99037.34;7738078;32;39610;-71
2022/04/05 05:10:55;;;;;;;10.57;6.03;;;;;;;6.42;53.63;99031.50;7737748;32;37739;-72
2022/04/05 05:15:15;;;;;;;12.77;6.97;;;;;;;6.63;52.57;99033.19;7737801;32;38640;-72
2022/04/05 05:19:31;;;;;;;12.02;6.65;;;;;;;7.02;51.95;99024.69;7737994;32;39091;-71
2022/04/05 05:23:47;;;;;;;11.77;6.97;;;;;;;6.16;52.88;99036.75;7737890;32;40005;-72
2022/04/05 05:28:04;;;;;;;11.32;6.70;;;;;;;7.00;51.17;99043.06;7737777;32;37903;-72
2022/04/05 05:32:20;;;;;;;13.77;7.82;;;;;;;6.95;52.17;99048.47;7737388;32;37069;-73
2022/04/05 05:36:36;;;;;;;20.92;11.30;;;;;;;7.47;50.91;99049.44;7737847;32;40016;-72
2022/04/05 05:40:53;;;;;;;12.77;8.40;;;;;;;7.09;52.42;99054.25;7737512;32;40824;-72
2022/04/05 05:45:09;;;;;;;11.77;7.93;;;;;;;7.81;50.47;99047.03;7736105;32;38730;-72
2022/04/05 05:49:25;;;;;;;12.90;7.18;;;;;;;7.68;50.88;99051.06;7737615;32;37396;-71
2022/04/05 05:53:41;;;;;;;13.62;7.47;;;;;;;7.50;51.18;99055.13;7737374;32;39112;-72
2022/04/05 05:57:57;;;;;;;11.70;7.03;;;;;;;8.21;49.69;99058.91;7737365;32;41498;-72
2022/04/05 06:02:13;;;;;;;14.15;7.82;;;;;;;7.95;49.56;99054.59;7735111;32;37194;-72
2022/04/05 06:06:29;;;;;;;13.73;7.90;;;;;;;8.34;48.68;99041.22;7737199;32;37310;-73
2022/04/05 06:10:46;;;;;;;14.57;8.48;;;;;;;8.44;48.85;99045.88;7736819;32;39567;-72
2022/04/05 06:15:02;;;;;;;17.83;8.48;;;;;;;8.73;49.30;99050.69;7736625;32;40065;-73
2022/04/05 06:19:18;;;;;;;12.13;8.00;;;;;;;9.04;48.52;99048.63;7736685;32;38616;-73
2022/04/05 06:23:34;;;;;;;15.07;8.05;;;;;;;8.99;47.25;99046.75;7736864;32;37975;-73
2022/04/05 06:27:51;;;;;;;12.52;7.62;;;;;;;9.28;46.24;99048.78;7736301;32;39405;-73
2022/04/05 06:32:07;;;;;;;14.75;8.05;;;;;;;9.49;46.02;99048.63;7736013;32;40013;-72
2022/04/05 06:36:23;;;;;;;12.80;7.35;;;;;;;9.76;45.73;99042.69;7736456;32;37462;-73
2022/04/05 06:40:41;;;;;;;13.65;7.37;;;;;;;10.09;45.53;99034.78;7736316;32;37204;-74
2022/04/05 06:44:57;;;;;;;14.77;7.87;;;;;;;9.47;45.69;99034.47;7734977;32;39740;-73
2022/04/05 06:49:13;;;;;;;12.23;7.22;;;;;;;9.44;45.68;99035.88;7736348;32;39694;-72
2022/04/05 06:53:31;;;;;;;10.07;6.20;;;;;;;9.53;44.46;99039.63;7735965;32;38374;-73
2022/04/05 06:57:47;;;;;;;12.40;6.55;;;;;;;9.43;44.04;99042.41;7735954;32;38321;-73
2022/04/05 07:02:03;;;;;;;10.80;6.78;;;;;;;9.50;44.62;99044.81;7735483;32;39790;-73
2022/04/05 07:06:19;;;;;;;10.73;6.78;;;;;;;10.02;43.86;99028.88;7735804;32;40737;-73
2022/04/05 07:10:36;;;;;;;8.70;5.65;;;;;;;9.28;45.15;99043.34;7735452;32;38110;-73
2022/04/05 07:14:52;;;;;;;10.70;5.57;;;;;;;9.55;43.92;99042.88;7738145;32;38080;-72
2022/04/05 07:19:08;;;;;;;9.00;5.68;;;;;;;10.13;42.55;99041.31;7739417;32;39322;-74
2022/04/05 07:23:24;;;;;;;8.88;5.22;;;;;;;9.61;43.93;99043.66;7739183;32;39976;-74
2022/04/05 07:27:41;;;;;;;10.05;6.05;;;;;;;9.99;42.72;99034.91;7739118;32;37811;-74
2022/04/05 07:31:57;;;;;;;13.10;5.60;;;;;;;9.74;42.67;99045.72;7738607;32;36350;-74
2022/04/05 07:36:13;;;;;;;14.65;6.07;;;;;;;10.22;41.74;99044.22;7739028;32;39122;-73
2022/04/05 07:40:47;;;;;;;7.87;4.87;;;;;;;10.37;41.86;99038.66;7711953;32;42334;-73
2022/04/05 07:45:06;;;;;;;8.90;5.68;;;;;;;10.22;41.11;99038.78;7734808;32;38634;-75
2022/04/05 07:49:22;;;;;;;9.80;5.80;;;;;;;9.74;42.05;99029.41;7737724;32;37834;-73
2022/04/05 07:53:38;;;;;;;8.85;5.57;;;;;;;9.59;41.18;99038.50;7737867;32;40138;-73
2022/04/05 07:57:54;;;;;;;12.95;6.03;;;;;;;9.36;42.57;99034.56;7738618;32;40937;-74
2022/04/05 08:02:10;;;;;;;10.23;6.18;;;;;;;8.98;43.41;99036.94;7738306;32;37907;-75
2022/04/05 08:06:43;;;;;;;9.77;6.10;;;;;;;9.65;42.88;99035.72;7737498;32;37259;-74
2022/04/05 08:10:59;;;;;;;11.98;5.95;;;;;;;9.81;41.83;99039.13;7738548;32;39404;-74
2022/04/05 08:15:20;;;;;;;10.82;5.68;;;;;;;9.61;42.53;99050.97;7717839;32;40778;-75
2022/04/05 08:19:36;;;;;;;8.43;5.25;;;;;;;9.89;42.39;99038.53;7711603;32;38639;-76
2022/04/05 08:23:52;;;;;;;14.90;6.10;;;;;;;10.06;41.00;99036.19;7736779;32;37827;-74
2022/04/05 08:28:09;;;;;;;8.88;5.22;;;;;;;10.05;42.17;99023.66;7737852;32;40822;-75
2022/04/05 08:32:26;;;;;;;9.80;5.60;;;;;;;10.10;41.47;99030.97;7738242;32;40705;-74
2022/04/05 08:36:42;;;;;;;9.90;5.57;;;;;;;9.88;40.77;99035.00;7738166;32;37953;-74
2022/04/05 08:41:02;;;;;;;8.52;5.57;;;;;;;9.51;42.41;99035.56;7738248;32;38008;-73
2022/04/05 08:45:19;;;;;;;11.18;5.90;;;;;;;10.31;40.88;99023.41;7736998;32;39439;-75
2022/04/05 08:49:37;;;;;;;8.40;5.50;;;;;;;10.51;40.22;99015.03;7737115;32;39987;-72
2022/04/05 08:53:53;;;;;;;8.43;5.60;;;;;;;11.21;40.18;99010.87;7737752;32;37960;-73
2022/04/05 08:58:09;;;;;;;6.93;4.50;;;;;;;11.15;39.31;99020.25;7737735;32;37897;-73
2022/04/05 09:02:26;;;;;;;8.45;4.50;;;;;;;10.83;39.63;99026.37;7738094;32;39502;-73
2022/04/05 09:06:42;;;;;;;8.40;4.70;;;;;;;11.70;38.43;99033.34;7738109;32;40727;-74
2022/04/05 09:11:04;;;;;;;8.52;4.35;;;;;;;11.40;38.05;99032.72;7738061;32;38616;-72
2022/04/05 09:15:20;;;;;;;11.02;5.85;;;;;;;11.05;38.58;99044.94;7737828;32;37962;-73
2022/04/05 09:19:46;;;;;;;9.23;5.32;;;;;;;11.84;37.82;99041.59;7737622;32;40192;-73
2022/04/05 09:24:08;;;;;;;7.87;4.95;;;;;;;11.81;38.44;99039.44;7711067;32;40851;-73
2022/04/05 09:28:31;;;;;;;9.27;5.50;;;;;;;12.06;37.58;99024.59;7713862;32;38808;-74
2022/04/05 09:32:48;;;;;;;7.87;4.87;;;;;;;11.98;36.69;99028.78;7737761;32;37028;-73
2022/04/05 09:37:09;;;;;;;11.70;5.00;;;;;;;11.98;37.52;99037.00;7737738;32;39386;-74
2022/04/05 09:41:25;;;;;;;11.30;5.30;;;;;;;11.90;36.49;99029.47;7737528;32;39847;-73
2022/04/05 09:45:50;;;;;;;11.43;5.60;;;;;;;12.13;37.05;99029.66;7737365;32;37917;-74
2022/04/05 09:50:07;;;;;;;10.55;5.45;;;;;;;12.67;35.82;99033.53;7737197;32;37114;-75
2022/04/05 09:54:28;;;;;;;10.30;5.30;;;;;;;12.37;35.84;99034.97;7722234;32;39801;-73
2022/04/05 09:58:47;;;;;;;10.88;6.07;;;;;;;12.48;36.97;99041.84;7732129;32;40779;-73
2022/04/05 10:03:05;;;;;;;9.25;5.35;;;;;;;11.75;38.10;99048.84;7737024;32;38320;-73
2022/04/05 10:07:21;;;;;;;9.88;5.40;;;;;;;11.70;38.42;99044.25;7736880;32;36647;-74
2022/04/05 10:11:39;;;;;;;8.80;5.12;;;;;;;10.95;40.76;99050.50;7737019;32;40114;-74
2022/04/05 10:15:56;;;;;;;7.95;4.70;;;;;;;11.03;39.54;99052.59;7737159;32;40068;-73
2022/04/05 10:20:15;;;;;;;12.63;4.55;;;;;;;11.43;39.40;99042.22;7736840;32;37928;-74
2022/04/05 10:24:32;;;;;;;9.07;5.00;;;;;;;11.46;39.35;99045.16;7736483;32;37165;-72
2022/04/05 10:28:49;;;;;;;8.48;5.00;;;;;;;10.85;41.43;99056.91;7735350;32;39408;-73
2022/04/05 10:33:25;;;;;;;10.10;5.18;;;;;;;11.31;41.11;99052.75;7735370;32;39547;-73
2022/04/05 10:37:42;;;;;;;9.23;4.93;;;;;;;11.16;42.41;99062.78;7734186;32;37850;-72
2022/04/05 10:42:11;;;;;;;8.05;5.35;;;;;;;10.23;44.44;99064.91;7736181;32;37792;-73
2022/04/05 10:46:41;;;;;;;8.60;5.32;;;;;;;9.88;45.70;99077.72;7736093;32;39305;-72
2022/04/05 10:51:30;;;;;;;8.30;5.20;;;;;;;9.94;46.56;99065.72;7736149;32;40317;-72
2022/04/05 10:56:11;;;;;;;8.38;5.10;;;;;;;9.96;47.73;99068.97;7737807;32;38946;-73
2022/04/05 11:00:27;;;;;;;8.40;5.28;;;;;;;10.02;47.80;99070.56;7738455;32;36766;-72
2022/04/05 11:04:43;;;;;;;6.00;4.30;;;;;;;9.74;48.38;99083.84;7739336;32;39003;-72
2022/04/05 11:08:59;;;;;;;7.90;4.32;;;;;;;9.73;49.73;99065.06;7738432;32;40431;-72
2022/04/05 11:13:21;;;;;;;10.77;4.75;;;;;;;9.47;50.66;99067.12;7738922;32;37490;-73
2022/04/05 11:17:37;;;;;;;7.65;4.68;;;;;;;9.96;49.26;99063.50;7739067;32;37189;-73
2022/04/05 11:22:00;;;;;;;7.78;4.70;;;;;;;9.47;51.32;99067.97;7737985;32;40077;-72
2022/04/05 11:26:29;;;;;;;8.13;4.60;;;;;;;9.42;51.90;99068.00;7738712;32;39734;-72
2022/04/05 11:30:54;;;;;;;6.53;4.30;;;;;;;10.07;50.41;99046.00;7739161;32;38556;-72
2022/04/05 11:35:26;;;;;;;5.68;3.53;;;;;;;9.62;51.10;99064.31;7739158;32;37365;-72
2022/04/05 11:39:43;;;;;;;4.82;3.20;;;;;;;9.77;50.78;99066.13;7739143;32;39285;-74
2022/04/05 11:44:01;;;;;;;5.55;3.65;;;;;;;9.91;50.56;99060.84;7739133;32;40696;-72
2022/04/05 11:48:22;;;;;;;6.65;3.90;;;;;;;9.88;50.89;99053.22;7738928;32;38374;-75
2022/04/05 11:52:38;;;;;;;7.45;4.00;;;;;;;10.14;50.39;99065.53;7739214;32;36787;-73
2022/04/05 11:57:02;;;;;;;5.40;3.62;;;;;;;9.50;52.18;99069.28;7738702;32;39969;-73
2022/04/05 12:01:28;;;;;;;5.32;3.72;;;;;;;9.46;52.60;99058.16;7737656;32;40129;-73
2022/04/05 12:05:44;;;;;;;6.18;4.00;;;;;;;9.67;52.25;99049.88;7738478;32;37877;-72
2022/04/05 12:10:00;;;;;;;6.18;3.53;;;;;;;10.10;51.16;99048.13;7738473;32;37019;-72
2022/04/05 12:14:22;;;;;;;6.68;3.87;;;;;;;10.33;51.00;99034.84;7737381;32;39392;-79
2022/04/05 12:18:42;;;;;;;5.53;3.25;;;;;;;9.52;53.47;99039.88;7733982;32;40840;-78
2022/04/05 12:22:58;;;;;;;4.22;3.20;;;;;;;9.82;52.50;99038.84;7711241;32;38623;-73
2022/04/05 12:27:17;;;;;;;4.55;3.17;;;;;;;10.27;51.12;99042.25;7710969;32;37458;-72
2022/04/05 12:31:33;;;;;;;6.10;3.33;;;;;;;10.25;51.93;99028.09;7711150;32;38694;-72
2022/04/05 12:35:49;;;;;;;6.22;3.37;;;;;;;10.84;50.28;99034.28;7709955;32;39884;-72
2022/04/05 12:40:21;;;;;;;5.72;3.45;;;;;;;10.61;50.92;99027.75;7709509;32;37824;-73
2022/04/05 12:44:39;;;;;;;5.25;3.20;;;;;;;10.42;51.94;99022.25;7711806;32;38256;-72
2022/04/05 12:49:12;;;;;;;6.37;3.30;;;;;;;10.62;51.43;99034.81;7711119;32;39480;-72
2022/04/05 12:53:48;;;;;;;5.55;3.55;;;;;;;10.14;52.77;99032.03;7710050;32;40172;-72
2022/04/05 12:58:05;;;;;;;6.28;3.22;;;;;;;10.25;51.98;99021.84;7710916;32;37845;-72
2022/04/05 13:02:25;;;;;;;4.85;3.40;;;;;;;10.88;50.08;99020.88;7710497;32;37472;-71
2022/04/05 13:06:51;;;;;;;5.30;3.37;;;;;;;10.21;51.94;99020.78;7711601;32;40127;-72
2022/04/05 13:11:25;;;;;;;8.48;5.68;;;;;;;10.97;50.28;99021.84;7708665;32;39572;-72
2022/04/05 13:15:42;;;;;;;6.40;3.30;;;;;;;10.62;50.70;99014.94;7710722;32;37847;-72
2022/04/05 13:19:59;;;;;;;4.82;3.50;;;;;;;10.43;51.17;99023.84;7710568;32;37209;-72
2022/04/05 13:24:16;;;;;;;5.32;3.20;;;;;;;10.43;50.89;99021.12;7710741;32;39408;-71
2022/04/05 13:28:36;;;;;;;4.55;3.10;;;;;;;10.29;51.23;99020.97;7709309;32;40213;-72
2022/04/05 13:33:07;;;;;;;7.05;3.65;;;;;;;10.45;50.97;99027.13;7709034;32;37824;-74
2022/04/05 13:37:24;;;;;;;6.35;3.95;;;;;;;10.24;51.07;99031.13;7711200;32;37178;-72
2022/04/05 13:41:41;;;;;;;8.43;3.87;;;;;;;10.55;50.86;99022.66;7710033;32;40846;-73
2022/04/05 13:45:57;;;;;;;7.05;4.10;;;;;;;10.81;50.24;99013.03;7710891;32;40867;-71
2022/04/05 13:50:18;;;;;;;8.10;4.40;;;;;;;11.40;49.25;99020.97;7709308;32;38426;-72
2022/04/05 13:54:36;;;;;;;8.82;4.50;;;;;;;11.28;49.01;99021.44;7710097;32;36531;-72
2022/04/05 13:58:55;;;;;;;7.75;4.72;;;;;;;11.42;48.61;99019.56;7710597;32;39308;-73
2022/04/05 14:03:11;;;;;;;11.52;5.07;;;;;;;11.18;49.78;99011.47;7708851;32;40009;-72
2022/04/05 14:07:27;;;;;;;9.70;5.35;;;;;;;10.78;50.83;99013.66;7710149;32;38447;-71
2022/04/05 14:11:43;;;;;;;7.50;4.20;;;;;;;11.30;49.65;99011.03;7709354;32;36820;-73
2022/04/05 14:15:59;;;;;;;7.72;4.90;;;;;;;11.44;49.59;99003.72;7709766;32;39277;-71
2022/04/05 14:20:15;;;;;;;10.90;5.95;;;;;;;11.57;49.62;99007.63;7709551;32;39929;-73
2022/04/05 14:24:32;;;;;;;9.38;5.15;;;;;;;10.92;51.45;99011.00;7708282;32;38560;-72
2022/04/05 14:28:48;;;;;;;7.68;4.40;;;;;;;11.23;50.44;99005.13;7709826;32;37274;-72
2022/04/05 14:33:04;;;;;;;6.57;4.05;;;;;;;11.84;49.08;98989.69;7709096;32;40882;-71
2022/04/05 14:37:20;;;;;;;7.60;5.03;;;;;;;11.28;49.70;98994.94;7709907;32;40161;-73
2022/04/05 14:41:37;;;;;;;8.55;4.53;;;;;;;11.52;49.50;98990.50;7709158;32;38022;-73
2022/04/05 14:45:53;;;;;;;9.27;3.72;;;;;;;12.16;48.18;98979.87;7708844;32;36734;-71
2022/04/05 14:50:10;;;;;;;8.68;3.95;;;;;;;11.68;48.21;98980.16;7709233;32;40023;-71
2022/04/05 14:54:26;;;;;;;6.45;3.97;;;;;;;12.06;48.20;98972.69;7708469;32;40764;-73
2022/04/05 14:58:42;;;;;;;9.20;4.53;;;;;;;11.46;49.08;98976.12;7708962;32;37919;-72
2022/04/05 15:02:58;;;;;;;6.90;4.03;;;;;;;12.11;48.06;98988.16;7708451;32;37816;-72
2022/04/05 15:07:15;;;;;;;5.68;3.92;;;;;;;11.44;48.92;98986.53;7708634;32;39445;-72
2022/04/05 15:11:31;;;;;;;7.37;4.40;;;;;;;11.21;49.56;98989.06;7706793;32;40769;-70
2022/04/05 15:15:47;;;;;;;6.12;3.65;;;;;;;11.54;48.93;98980.91;7706270;32;38397;-72
2022/04/05 15:20:04;;;;;;;5.28;3.50;;;;;;;11.78;48.29;98979.94;7706917;32;36727;-72
2022/04/05 15:24:21;;;;;;;9.13;5.18;;;;;;;12.06;47.90;98982.81;7707427;32;39596;-71
2022/04/05 15:28:37;;;;;;;6.45;3.90;;;;;;;11.23;50.42;98992.31;7707876;32;41214;-72
2022/04/05 15:32:53;;;;;;;8.35;4.43;;;;;;;11.87;48.97;98989.09;7707703;32;38840;-72
2022/04/05 15:37:10;;;;;;;8.40;4.22;;;;;;;12.02;49.30;98988.88;7710247;32;36792;-72
2022/04/05 15:41:27;;;;;;;5.62;3.53;;;;;;;12.11;48.88;98991.72;7711430;32;40119;-72
2022/04/05 15:45:43;;;;;;;7.25;4.12;;;;;;;11.71;49.60;98991.28;7714873;32;40061;-73
2022/04/05 15:49:59;;;;;;;9.35;3.58;;;;;;;11.67;49.28;98987.50;7723886;32;37965;-72
2022/04/05 15:54:16;;;;;;;5.93;3.22;;;;;;;12.22;48.07;98989.59;7722936;32;37365;-73
2022/04/05 15:58:32;;;;;;;5.12;3.10;;;;;;;11.34;50.67;98992.94;7717514;32;39275;-72
2022/04/05 16:02:49;;;;;;;5.37;3.33;;;;;;;11.95;49.27;98988.44;7724428;32;39945;-73
2022/04/05 16:07:05;;;;;;;3.53;2.83;;;;;;;11.18;51.45;98989.66;7738478;32;37623;-72
2022/04/05 16:11:21;;;;;;;5.43;3.42;;;;;;;11.69;50.11;98993.47;7738841;32;37572;-72
2022/04/05 16:15:37;;;;;;;7.87;4.43;;;;;;;11.34;51.08;98998.41;7736693;32;39243;-72
2022/04/05 16:19:55;;;;;;;8.88;4.45;;;;;;;11.16;51.51;99002.78;7738801;32;40014;-70
2022/04/05 16:24:11;;;;;;;11.55;4.35;;;;;;;11.20;51.16;99008.44;7736919;32;37908;-72
2022/04/05 16:28:27;;;;;;;5.20;2.90;;;;;;;11.02;51.85;99007.31;7738077;32;37187;-73
2022/04/05 16:32:43;;;;;;;5.60;3.10;;;;;;;10.76;52.83;99020.47;7738588;32;39833;-73
2022/04/05 16:37:00;;;;;;;4.72;2.97;;;;;;;11.18;52.03;99021.59;7737830;32;40550;-72
2022/04/05 16:41:16;;;;;;;3.60;2.50;;;;;;;10.89;53.01;99031.47;7737280;32;37832;-72
2022/04/05 16:45:33;;;;;;;3.35;2.40;;;;;;;11.03;53.25;99033.50;7737125;32;37083;-72
2022/04/05 16:49:50;;;;;;;4.25;2.92;;;;;;;11.19;52.74;99034.94;7733504;32;160565;-72
2022/04/05 16:54:06;;;;;;;4.35;2.80;;;;;;;10.62;53.84;99042.19;7737484;32;39928;-72
2022/04/05 16:58:23;;;;;;;5.47;2.83;;;;;;;10.26;54.83;99034.34;7737831;32;38607;-73
2022/04/05 17:02:39;;;;;;;10.00;4.25;;;;;;;10.84;53.35;99042.47;7738352;32;37243;-72
2022/04/05 17:06:56;;;;;;;5.47;3.53;;;;;;;10.49;54.62;99044.50;7737401;32;40031;-72
2022/04/05 17:11:13;;;;;;;5.90;3.55;;;;;;;10.42;54.87;99059.59;7738071;32;40862;-73
2022/04/05 17:15:29;;;;;;;7.32;4.00;;;;;;;10.29;55.58;99061.03;7736981;32;37978;-73
2022/04/05 17:19:47;;;;;;;4.62;3.25;;;;;;;10.36;55.69;99060.72;7730526;32;38098;-72
2022/04/05 17:24:04;;;;;;;4.43;3.30;;;;;;;10.26;55.98;99058.88;7737656;32;40071;-72
2022/04/05 17:28:21;;;;;;;5.47;3.40;;;;;;;10.40;55.51;99065.31;7736964;32;40047;-73
2022/04/05 17:32:37;;;;;;;4.40;3.50;;;;;;;10.47;55.90;99059.53;7737761;32;38440;-72
2022/04/05 17:36:54;;;;;;;5.05;3.95;;;;;;;10.45;56.12;99070.72;7734495;32;37193;-71
2022/04/05 17:41:10;;;;;;;40.17;24.98;;;;;;;10.46;56.02;99066.06;7737746;32;39428;-71
2022/04/05 17:45:26;;;;;;;16.35;11.55;;;;;;;10.04;57.39;99071.06;7736251;32;39462;-72
2022/04/05 17:49:42;;;;;;;5.78;3.85;;;;;;;10.39;56.61;99074.59;7737577;32;37993;-72
2022/04/05 17:54:00;;;;;;;5.90;3.60;;;;;;;10.09;57.31;99076.47;7737420;32;37326;-72
2022/04/05 17:58:16;;;;;;;8.85;4.00;;;;;;;10.62;55.83;99086.59;7735911;32;40160;-72
2022/04/05 18:02:32;;;;;;;6.65;3.30;;;;;;;9.75;58.53;99085.44;7735943;32;40963;-72
2022/04/05 18:06:48;;;;;;;6.55;3.62;;;;;;;10.03;57.34;99080.34;7737039;32;37794;-71
2022/04/05 18:11:04;;;;;;;4.53;3.37;;;;;;;10.78;55.62;99087.25;7736127;32;38604;-71
2022/04/05 18:15:20;;;;;;;5.68;3.42;;;;;;;10.46;56.29;99094.13;7735966;32;39426;-72
2022/04/05 18:19:37;;;;;;;4.37;3.25;;;;;;;10.47;55.89;99101.22;7736974;32;39966;-71
2022/04/05 18:23:53;;;;;;;5.65;3.62;;;;;;;10.22;57.34;99106.88;7736714;32;38729;-71
2022/04/05 18:28:09;;;;;;;4.78;3.50;;;;;;;10.34;56.89;99123.69;7736796;32;36733;-71
2022/04/05 18:32:25;;;;;;;5.20;3.60;;;;;;;10.43;56.61;99123.87;7736880;32;39106;-71
2022/04/05 18:36:41;;;;;;;8.82;4.82;;;;;;;10.21;57.50;99118.84;7736517;32;39848;-72
2022/04/05 18:40:58;;;;;;;6.62;4.35;;;;;;;10.71;56.34;99127.69;7735807;32;38633;-72
2022/04/05 18:45:18;;;;;;;8.48;4.80;;;;;;;10.77;56.06;99131.16;7736104;32;37373;-70
2022/04/05 18:49:34;;;;;;;10.10;5.65;;;;;;;11.01;55.41;99136.62;7736037;32;39323;-72
2022/04/05 18:53:50;;;;;;;8.57;5.50;;;;;;;10.78;56.13;99143.69;7734476;32;40677;-72
2022/04/05 18:58:08;;;;;;;9.23;5.68;;;;;;;11.13;54.82;99139.75;7735831;32;38557;-71
2022/04/05 19:02:25;;;;;;;11.07;5.85;;;;;;;10.85;55.62;99153.16;7735704;32;37337;-72
2022/04/05 19:06:41;;;;;;;10.75;6.40;;;;;;;10.80;55.82;99155.13;7735611;32;39420;-70
2022/04/05 19:10:57;;;;;;;9.82;5.80;;;;;;;10.37;56.98;99155.81;7736889;32;40507;-68
2022/04/05 19:15:13;;;;;;;9.88;6.47;;;;;;;10.41;57.48;99165.03;7728653;32;37579;-72
2022/04/05 19:19:30;;;;;;;9.98;6.47;;;;;;;10.40;57.52;99160.69;7718370;32;37751;-72
2022/04/05 19:23:46;;;;;;;12.00;7.22;;;;;;;10.90;55.75;99153.09;7725580;32;39424;-71
2022/04/05 19:28:02;;;;;;;11.25;6.80;;;;;;;10.64;56.53;99154.47;7719573;32;40942;-72
2022/04/05 19:32:18;;;;;;;10.98;6.85;;;;;;;10.69;56.44;99162.59;7724946;32;37850;-71
2022/04/05 19:36:35;;;;;;;11.35;6.80;;;;;;;10.36;57.44;99167.78;7730997;32;37055;-71
2022/04/05 19:40:51;;;;;;;14.30;7.35;;;;;;;10.59;57.18;99157.22;7738617;32;39164;-72
2022/04/05 19:45:09;;;;;;;14.07;7.30;;;;;;;10.11;58.43;99169.59;7738280;32;41204;-73
2022/04/05 19:49:31;;;;;;;13.02;8.10;;;;;;;10.62;56.93;99162.91;7738366;32;37850;-72
2022/04/05 19:53:47;;;;;;;13.35;7.25;;;;;;;10.50;57.20;99160.59;7738265;32;36826;-71
2022/04/05 19:58:04;;;;;;;10.05;6.25;;;;;;;10.15;58.53;99159.75;7738171;32;39046;-72
2022/04/05 20:02:20;;;;;;;11.82;6.82;;;;;;;10.24;57.96;99156.44;7735530;32;40850;-72
2022/04/05 20:06:37;;;;;;;11.48;6.85;;;;;;;10.00;58.16;99162.59;7735814;32;37959;-71
2022/04/05 20:10:53;;;;;;;12.93;7.53;;;;;;;10.47;57.00;99157.63;7737431;32;37159;-71
2022/04/05 20:15:09;;;;;;;10.57;6.62;;;;;;;10.32;57.51;99151.22;7737186;32;39149;-71